Tuesday, September 02, 2014
11:44 UTC
  |  Log In   |  Register Free
Airport Search:

Lonesome Pine Airport
(KLNP)

Lonesome Pine Airport Diagram
No Airport Diagram Available

FAA data valid effective July 24, 2014 until September 18, 2014 (unless otherwise noted).

 
 
 
 
 
 
 
 
 
 
 
 
 
 

Current Aviation Weather for Lonesome Pine Airport (KLNP)

The most recent METAR observation for KLNP was updated at: 1055 UTC
METAR Summary (Translated METAR)
KLNP
021055Z AUTO 22010G14KT 10SM CLR 22/20 A3018 RMK AO2
KVJI
(29.9 nm SE from KLNP)
021055Z AUTO 00000KT 10SM CLR 21/20 A3016 RMK AO2 T02050196
TAF Summary (Translated TAF)
KTRI
(31.3 nm SE from KLNP)
020535Z 0206/0306 VRB03KT P6SM BKN250 TEMPO 0208/0212 4SM BR FM021600 25008KT P6SM VCTS BKN040CB OVC150 FM030200 VRB03KT P6SM BKN080
  Airport Weather Conditions for KLNP

 Current Weather at LNP
72° F
Fair
Southwest winds at 11.5 mph
LNP NOAA Radar

Pressure: 30.18 in
Humidity: 88%
Wind: from the Southwest at 11.5 gusting to 16.1 MPH (10 gusting to 14 KT)
Dew Point: 68.0°F
Visibility: 10.00 mi


Airport Weather Forecast for KLNP

Translated METAR and TAF for KLNP
Translated METAR for KLNP (1138 UTC 02 September 2014)
found at http://aviationweather.gov/adds/metars/
 
METAR text: KLNP 021115Z AUTO 22007KT 10SM SCT120 22/21 A3019 RMK AO2
Conditions at: KLNP (WISE/LONESOME PI, VA, US) observed 1115 UTC 02 September 2014
Temperature: 22.0°C (72°F)
Dewpoint: 21.0°C (70°F) [RH = 94%]
Pressure (altimeter): 30.19 inches Hg (1022.4 mb)
Winds: from the SW (220 degrees) at 8 MPH (7 knots; 3.6 m/s)
Visibility: 10 or more miles (16+ km)
Ceiling: at least 12,000 feet AGL
Clouds: scattered clouds at 12000 feet AGL
Weather: automated observation with no human augmentation;
there may or may not be significant weather present at this time
Translated TAF for KLNP

There is no translated TAF available for this airport

Find All Airport Services Find A Hotel Find A Rental Car Find A Golf Course Find A Restaurant $100 Hamburger



FBO's on the Field
FBO Company Facility Photos Services Transportation Aviation Fuel Prices: Prices include tax
Catering Weather Repair Courtesy Rental Type 100LL JetA JetA+ MOGAS 8087
 
Lonesome Pine Airport

This FBO has not yet been rated
FS:Shell
Last Updated: Aug-20
Login to update fuel prices
SS:
Contact Lonesome Pine AirportMore FBO Information
 
Add another FBO Facility Photos Catering Weather Repair Courtesy Rental Type 100LL JetA JetA+ MOGAS 8087
Services Transportation Aviation Fuel Prices: Prices include tax


GlobalAir.com Airport Resource Center model-print
model-print
model-print
model-print